תחנות METAR סמוכות

 

LLBG - Ben-Gurion(Civ/M, Israel
Distance from station: 'מ 83km
עודכן: 23/02/2024 06:20
בהיר
בהיר
 רוח מ משתנה
רוח: משתנה 2 km/h
טמפרטורה: 10°C
נקודת הטל: 9°C
לחות: 94%
ברומטר: 1019 hPa
סיכום: בהיר
ראות: greater than 10 km
2024/02/23 04:20 LLBG 230420Z VRB01KT CAVOK 10/09 Q1019 NOSIG
LLSD - Sde Dov Airport, Israel
Distance from station: 'מ 75km
עודכן: 30/06/2019 23:50
לא מעודכן
מעונן חלקית
מעונן חלקית
 רוח מ משתנה
רוח: משתנה 6 km/h
טמפרטורה: 27°C
עומס חום: 30°C
נקודת הטל: 23°C
לחות: 79%
ברומטר: 1007 hPa
עננים: מעונן חלקית
ראות: 10 km
Cloud details: מעונן חלקית 518 m
2019/06/30 20:50 LLSD 302050Z VRB03KT 9999 SCT017 27/23 Q1007
 
LLHA - Haifa (isr-Afb), Israel
Distance from station: 'צמ 129km
עודכן: 23/02/2024 06:00
Few Clouds
Few Clouds
 רוח מ משתנה
רוח: משתנה 4 km/h
טמפרטורה: 11°C
נקודת הטל: 10°C
לחות: 94%
ברומטר: 1020 hPa
עננים: Few Clouds
ראות: 8 km
Cloud details: Few Clouds 975 m
2024/02/23 04:00 LLHA 230400Z VRB02KT 8000 FEW032 11/10 Q1020
LLIB - Ben Ya Akov, Israel
Distance from station: 'צמ 183km
עודכן: 14/10/2023 18:50
לא מעודכן
בהיר
בהיר
 רוח מ 'צמ
רוח: 'צמ 15 km/h
טמפרטורה: 25°C
נקודת הטל: 15°C
לחות: 54%
ברומטר: 1013 hPa
סיכום: בהיר
ראות: greater than 10 km
2023/10/14 15:50 LLIB 141550Z AUTO 31008KT CAVOK 25/15 Q1013
 
LLOV - Ovda (isr-Afb/Ci, Israel
Distance from station: 'דדמ 246km
עודכן: 31/03/2019 22:50
לא מעודכן
בהיר
בהיר
 רוח מ 'מדמ
רוח: 'מדמ 13 km/h
טמפרטורה: 12°C
נקודת הטל: 0°C
לחות: 44%
ברומטר: 1012 hPa
סיכום: בהיר
ראות: greater than 10 km
2019/03/31 19:50 LLOV 311950Z 24007KT CAVOK 12/00 Q1012
LLET - Elat/J. Hozman(A, Israel
Distance from station: 'דדמ 287km
עודכן: 18/03/2019 17:50
לא מעודכן
בהיר
בהיר
 רוח מ 'צצמ
רוח: 'צצמ 30 km/h
טמפרטורה: 24°C
נקודת הטל: -1°C
לחות: 19%
ברומטר: 1016 hPa
סיכום: בהיר
ראות: greater than 10 km
2019/03/18 15:50 LLET 181550Z 02016KT CAVOK 24/M01 Q1016
 
LCLK - Larnaca/Larnax A, Cyprus
Distance from station: 'צ 321km
עודכן: 23/02/2024 06:30
בהיר
בהיר
 רוח מ 'צמ
רוח: 'צמ 13 km/h
טמפרטורה: 10°C
אפקט הרוח: 8°C
נקודת הטל: 8°C
לחות: 88%
ברומטר: 1020 hPa
סיכום: בהיר
ראות: greater than 10 km
2024/02/23 04:30 LCLK 230430Z 31007KT CAVOK 10/08 Q1020 NOSIG